createdAt,value
2018-04-23T00:00:12.212Z,67.34
2018-04-23T00:01:21.047Z,66.96
2018-04-23T00:02:29.898Z,67.43
2018-04-23T00:03:39.007Z,67.34
2018-04-23T00:04:47.842Z,67.24
2018-04-23T00:05:56.684Z,67.43
2018-04-23T00:07:05.517Z,67.3
2018-04-23T00:08:14.352Z,67.59
2018-04-23T00:09:23.466Z,66.83
2018-04-23T00:10:32.307Z,67.4
2018-04-23T00:11:41.137Z,67.59
2018-04-23T00:12:50.248Z,67.21
2018-04-23T00:13:59.088Z,67.3
2018-04-23T00:15:07.923Z,66.83
2018-04-23T00:16:16.757Z,67.05
2018-04-23T00:17:25.593Z,67.3
2018-04-23T00:18:34.429Z,66.67
2018-04-23T00:19:43.265Z,66.83
2018-04-23T00:20:52.100Z,67.05
2018-04-23T00:22:00.949Z,66.35
2018-04-23T00:23:09.766Z,66.67
2018-04-23T00:24:18.597Z,67.14
2018-04-23T00:25:27.437Z,66.67
2018-04-23T00:26:36.267Z,66.76
2018-04-23T00:27:45.378Z,66.54
2018-04-23T00:28:54.211Z,66.09
2018-04-23T00:30:03.043Z,66.09
2018-04-23T00:31:11.879Z,66.09
2018-04-23T00:32:20.717Z,65.58
2018-04-23T00:33:29.827Z,66.09
2018-04-23T00:34:38.661Z,66.19
2018-04-23T00:35:47.505Z,66.38
2018-04-23T00:36:56.327Z,66.19
2018-04-23T00:38:05.177Z,65.9
2018-04-23T00:39:13.996Z,66.38
2018-04-23T00:40:23.104Z,67.05
2018-04-23T00:41:31.941Z,66.86
2018-04-23T00:42:40.779Z,66.47
2018-04-23T00:43:49.616Z,66.57
2018-04-23T00:44:58.458Z,66.28
2018-04-23T00:46:07.834Z,66.09
2018-04-23T00:47:16.945Z,65.61
2018-04-23T00:48:25.782Z,66.28
2018-04-23T00:49:34.614Z,66.86
2018-04-23T00:50:43.449Z,65.81
2018-04-23T00:51:52.293Z,66.38
2018-04-23T00:53:01.406Z,66.28
2018-04-23T00:54:10.516Z,66.28
2018-04-23T00:55:19.356Z,66.28
2018-04-23T00:56:28.739Z,66.86
2018-04-23T00:57:37.577Z,66.96
2018-04-23T00:58:46.694Z,66.57
2018-04-23T00:59:55.529Z,66.86
2018-04-23T01:01:04.363Z,66.38
2018-04-23T01:02:13.205Z,67.14
2018-04-23T01:03:22.037Z,66.57
2018-04-23T01:04:30.875Z,67.05
2018-04-23T01:05:39.983Z,66.76
2018-04-23T01:06:48.817Z,66.67
2018-04-23T01:07:57.935Z,66.76
2018-04-23T01:09:06.772Z,67.43
2018-04-23T01:10:15.608Z,66.76
2018-04-23T01:11:24.443Z,67.05
2018-04-23T01:12:33.275Z,67.14
2018-04-23T01:13:42.108Z,67.05
2018-04-23T01:14:51.493Z,66.76
2018-04-23T01:16:00.329Z,67.24
2018-04-23T01:17:09.443Z,67.53
2018-04-23T01:18:18.281Z,67.53
2018-04-23T01:19:27.115Z,67.43
2018-04-23T01:20:36.224Z,67.53
2018-04-23T01:21:45.338Z,68.01
2018-04-23T01:22:54.173Z,67.63
2018-04-23T01:24:03.008Z,67.24
2018-04-23T01:25:11.844Z,67.43
2018-04-23T01:26:20.957Z,67.72
2018-04-23T01:27:29.796Z,67.91
2018-04-23T01:28:38.624Z,68.68
2018-04-23T01:29:47.458Z,67.72
2018-04-23T01:30:56.564Z,68.01
2018-04-23T01:32:05.398Z,68.29
2018-04-23T01:33:14.238Z,68.58
2018-04-23T01:34:23.071Z,68.87
2018-04-23T01:35:31.907Z,68.96
2018-04-23T01:36:41.343Z,68.87
2018-04-23T01:37:50.175Z,68.29
2018-04-23T01:38:59.015Z,68.39
2018-04-23T01:40:07.845Z,68.68
2018-04-23T01:41:16.960Z,69.06
2018-04-23T01:42:26.080Z,69.44
2018-04-23T01:43:34.917Z,69.25
2018-04-23T01:44:43.755Z,68.96
2018-04-23T01:45:52.586Z,69.25
2018-04-23T01:47:01.423Z,69.15
2018-04-23T01:48:10.257Z,69.06
2018-04-23T01:49:19.093Z,68.49
2018-04-23T01:50:27.923Z,68.96
2018-04-23T01:51:36.760Z,69.64
2018-04-23T01:52:45.591Z,69.15
2018-04-23T01:53:54.701Z,69.92
2018-04-23T01:55:03.538Z,68.87
2018-04-23T01:56:12.649Z,69.25
2018-04-23T01:57:21.488Z,68.96
2018-04-23T01:58:30.608Z,70.24
2018-04-23T01:59:39.441Z,67.43
2018-04-23T02:00:48.275Z,65.52
2018-04-23T02:01:57.109Z,69.57
2018-04-23T02:03:06.224Z,69.76
2018-04-23T02:04:15.061Z,68.52
2018-04-23T02:05:23.897Z,69.29
2018-04-23T02:06:33.292Z,69.38
2018-04-23T02:07:42.131Z,69.19
2018-04-23T02:08:50.964Z,69.48
2018-04-23T02:10:00.080Z,69.95
2018-04-23T02:11:09.188Z,67.91
2018-04-23T02:12:18.022Z,69.25
2018-04-23T02:13:27.133Z,71.2
2018-04-23T02:14:35.971Z,70.72
2018-04-23T02:15:44.808Z,70.24
2018-04-23T02:16:53.941Z,70.24
2018-04-23T02:18:02.761Z,71.3
2018-04-23T02:19:11.882Z,69.19
2018-04-23T02:20:20.723Z,70.72
2018-04-23T02:21:29.555Z,69.09
2018-04-23T02:22:38.391Z,70.81
2018-04-23T02:23:47.221Z,71.3
2018-04-23T02:24:56.057Z,70.81
2018-04-23T02:26:04.895Z,71.39
2018-04-23T02:27:13.727Z,71.58
2018-04-23T02:28:22.628Z,71.36
2018-04-23T02:29:32.007Z,71.39
2018-04-23T02:30:41.121Z,71.97
2018-04-23T02:31:50.233Z,70.87
2018-04-23T02:32:59.069Z,70.72
2018-04-23T02:34:08.185Z,71.01
2018-04-23T02:35:17.298Z,71.11
2018-04-23T02:36:27.240Z,71.48
2018-04-23T02:37:36.096Z,71.77
2018-04-23T02:38:44.937Z,72.16
2018-04-23T02:39:54.048Z,72.34
2018-04-23T02:41:02.892Z,71.97
2018-04-23T02:42:12.005Z,72.06
2018-04-23T02:43:21.418Z,72.44
2018-04-23T02:44:30.805Z,72.54
2018-04-23T02:45:39.797Z,73.02
2018-04-23T02:46:48.906Z,73.3
2018-04-23T02:47:58.019Z,73.02
2018-04-23T02:49:07.136Z,72.92
2018-04-23T02:50:16.245Z,73.02
2018-04-23T02:51:25.085Z,73.3
2018-04-23T02:52:33.923Z,73.3
2018-04-23T02:53:43.033Z,73.02
2018-04-23T02:54:51.870Z,73.69
2018-04-23T02:56:00.707Z,73.69
2018-04-23T02:57:09.552Z,72.73
2018-04-23T02:58:19.215Z,73.5
2018-04-23T02:59:28.880Z,72.92
2018-04-23T03:00:37.733Z,73.88
2018-04-23T03:01:47.113Z,74.65
2018-04-23T03:02:56.222Z,75.02
2018-04-23T03:04:05.621Z,74.51
2018-04-23T03:05:15.012Z,74.55
2018-04-23T03:06:24.686Z,73.79
2018-04-23T03:07:33.806Z,74.07
2018-04-23T03:08:42.916Z,73.27
2018-04-23T03:09:51.750Z,75.12
2018-04-23T03:11:00.588Z,75.12
2018-04-23T03:12:09.971Z,75.12
2018-04-23T03:13:19.629Z,75.7
2018-04-23T03:14:28.742Z,75.51
2018-04-23T03:15:37.577Z,76.18
2018-04-23T03:16:46.413Z,76.56
2018-04-23T03:17:55.245Z,76.71
2018-04-23T03:19:04.079Z,77.28
2018-04-23T03:20:12.915Z,76.81
2018-04-23T03:21:21.743Z,77.48
2018-04-23T03:22:30.578Z,78.53
2018-04-23T03:23:39.413Z,78.14
2018-04-23T03:24:48.249Z,79.1
2018-04-23T03:25:57.087Z,77
2018-04-23T03:27:05.925Z,79.39
2018-04-23T03:28:14.761Z,79
2018-04-23T03:29:23.596Z,79.49
2018-04-23T03:30:32.437Z,79.2
2018-04-23T03:31:42.102Z,79.96
2018-04-23T03:32:51.488Z,78.53
2018-04-23T03:34:00.601Z,79.96
2018-04-23T03:35:09.438Z,78.81
2018-04-23T03:36:18.547Z,79.39
2018-04-23T03:37:27.386Z,80.54
2018-04-23T03:38:36.499Z,81.4
2018-04-23T03:39:45.325Z,80.73
2018-04-23T03:40:54.163Z,81.49
2018-04-23T03:42:03.273Z,82.35
2018-04-23T03:43:12.383Z,82.17
2018-04-23T03:44:21.546Z,83.03
2018-04-23T03:45:30.330Z,83.12
2018-04-23T03:46:39.165Z,83.03
2018-04-23T03:47:47.997Z,83.89
2018-04-23T03:48:56.834Z,83.6
2018-04-23T03:50:05.671Z,80.25
2018-04-23T03:51:14.511Z,83.12
2018-04-23T03:52:23.344Z,83.98
2018-04-23T03:53:32.180Z,84.36
2018-04-23T03:54:41.010Z,83.79
2018-04-23T03:55:50.119Z,82.83
2018-04-23T03:56:58.959Z,84.46
2018-04-23T03:58:08.067Z,83.79
2018-04-23T03:59:16.902Z,81.3
2018-04-23T04:00:25.738Z,84.17
2018-04-23T04:01:34.853Z,83.4
2018-04-23T04:02:43.963Z,83.03
2018-04-23T04:03:52.797Z,84.08
2018-04-23T04:05:01.907Z,85.22
2018-04-23T04:06:10.741Z,86.08
2018-04-23T04:07:19.578Z,86.76
2018-04-23T04:08:28.414Z,85.28
2018-04-23T04:09:37.528Z,86.66
2018-04-23T04:10:46.359Z,86.43
2018-04-23T04:11:55.495Z,84.46
2018-04-23T04:13:04.330Z,86.18
2018-04-23T04:14:13.164Z,86.52
2018-04-23T04:15:22.277Z,86.52
2018-04-23T04:16:31.110Z,86.71
2018-04-23T04:17:39.944Z,86.94
2018-04-23T04:18:48.779Z,86.28
2018-04-23T04:19:57.620Z,84.89
2018-04-23T04:21:06.453Z,86.57
2018-04-23T04:22:15.563Z,86.43
2018-04-23T04:23:24.400Z,86.47
2018-04-23T04:24:33.234Z,86.43
2018-04-23T04:25:42.350Z,87.86
2018-04-23T04:26:51.183Z,86.9
2018-04-23T04:28:00.014Z,87.81
2018-04-23T04:29:08.850Z,87.33
2018-04-23T04:30:17.963Z,86.9
2018-04-23T04:31:26.798Z,87
2018-04-23T04:32:35.633Z,87.38
2018-04-23T04:33:44.469Z,88.34
2018-04-23T04:34:53.304Z,87.86
2018-04-23T04:36:02.138Z,87.86
2018-04-23T04:37:11.255Z,88.34
2018-04-23T04:38:20.134Z,88.38
2018-04-23T04:39:29.541Z,88.24
2018-04-23T04:40:38.926Z,88.05
2018-04-23T04:41:48.040Z,87.81
2018-04-23T04:42:56.878Z,88
2018-04-23T04:44:05.993Z,87.57
2018-04-23T04:45:14.828Z,87.48
2018-04-23T04:46:23.939Z,87.95
2018-04-23T04:47:33.199Z,87.71
2018-04-23T04:48:42.034Z,88.38
2018-04-23T04:49:50.868Z,88.24
2018-04-23T04:50:59.978Z,88.48
2018-04-23T04:52:08.817Z,88.38
2018-04-23T04:53:17.656Z,88.95
2018-04-23T04:54:26.492Z,88.09
2018-04-23T04:55:35.328Z,87.57
2018-04-23T04:56:44.217Z,87.76
2018-04-23T04:57:53.322Z,89.05
2018-04-23T04:59:02.183Z,88.48
2018-04-23T05:00:11.269Z,88.38
2018-04-23T05:01:20.103Z,88.86
2018-04-23T05:02:28.943Z,88.19
2018-04-23T05:03:38.054Z,89.05
2018-04-23T05:04:47.168Z,88.38
2018-04-23T05:05:56.006Z,88.24
2018-04-23T05:07:05.155Z,88.81
2018-04-23T05:08:13.992Z,87.86
2018-04-23T05:09:22.828Z,87.62
2018-04-23T05:10:31.664Z,88.43
2018-04-23T05:11:40.499Z,88.43
2018-04-23T05:12:49.613Z,88.34
2018-04-23T05:13:58.486Z,87.95
2018-04-23T05:15:07.480Z,88.29
2018-04-23T05:16:16.329Z,88.34
2018-04-23T05:17:25.213Z,86.9
2018-04-23T05:18:34.048Z,88.43
2018-04-23T05:19:42.888Z,88.24
2018-04-23T05:20:51.722Z,88.15
2018-04-23T05:22:00.560Z,88.43
2018-04-23T05:23:09.395Z,86.8
2018-04-23T05:24:18.236Z,88.81
2018-04-23T05:25:27.065Z,88.43
2018-04-23T05:26:35.904Z,88.91
2018-04-23T05:27:45.017Z,88.15
2018-04-23T05:28:54.405Z,88.62
2018-04-23T05:30:03.628Z,88.19
2018-04-23T05:31:12.940Z,88.81
2018-04-23T05:32:22.050Z,88.72
2018-04-23T05:33:31.162Z,88.81
2018-04-23T05:34:40.047Z,89.01
2018-04-23T05:35:48.887Z,88.86
2018-04-23T05:36:57.722Z,88.91
2018-04-23T05:38:07.384Z,88.57
2018-04-23T05:39:16.223Z,88.43
2018-04-23T05:40:25.057Z,88.38
2018-04-23T05:41:34.166Z,86.76
2018-04-23T05:42:43.006Z,87.33
2018-04-23T05:43:51.842Z,83.98
2018-04-23T05:45:00.952Z,85.22
2018-04-23T05:46:10.066Z,88.86
2018-04-23T05:47:18.900Z,87.62
2018-04-23T05:48:27.736Z,89.05
2018-04-23T05:49:36.572Z,88.86
2018-04-23T05:50:45.955Z,87.71
2018-04-23T05:51:54.838Z,88.33
2018-04-23T05:53:03.949Z,88.9
2018-04-23T05:54:12.782Z,89.29
2018-04-23T05:55:21.893Z,89.67
2018-04-23T05:56:30.730Z,87.52
2018-04-23T05:57:39.844Z,88.86
2018-04-23T05:58:48.680Z,89.67
2018-04-23T05:59:57.516Z,88.81
2018-04-23T06:01:06.386Z,88.9
2018-04-23T06:02:15.509Z,89.58
2018-04-23T06:03:24.346Z,89.48
2018-04-23T06:04:33.183Z,89.43
2018-04-23T06:05:42.020Z,89.95
2018-04-23T06:06:51.132Z,89.58
2018-04-23T06:08:00.239Z,89.86
2018-04-23T06:09:09.077Z,89.95
2018-04-23T06:10:17.913Z,89.86
2018-04-23T06:11:26.753Z,89.67
2018-04-23T06:12:35.864Z,89.29
2018-04-23T06:13:44.698Z,89
2018-04-23T06:14:53.534Z,89.43
2018-04-23T06:16:02.370Z,89.09
2018-04-23T06:17:11.206Z,89.53
2018-04-23T06:18:20.041Z,89.53
2018-04-23T06:19:28.878Z,89.91
2018-04-23T06:20:37.815Z,89.34
2018-04-23T06:21:46.651Z,89.05
2018-04-23T06:22:55.489Z,89.62
2018-04-23T06:24:04.321Z,89.62
2018-04-23T06:25:13.163Z,88.67
2018-04-23T06:26:22.371Z,88.95
2018-04-23T06:27:31.218Z,89.91
2018-04-23T06:28:40.054Z,88.95
2018-04-23T06:29:48.888Z,86.85
2018-04-23T06:30:57.739Z,87.71
2018-04-23T06:32:06.856Z,89.34
2018-04-23T06:33:15.697Z,88.95
2018-04-23T06:34:24.816Z,88.67
2018-04-23T06:35:33.936Z,88.86
2018-04-23T06:36:42.777Z,88.95
2018-04-23T06:37:51.616Z,88.76
2018-04-23T06:39:00.452Z,89.05
2018-04-23T06:40:09.288Z,89.15
2018-04-23T06:41:18.122Z,88.38
2018-04-23T06:42:27.057Z,88.86
2018-04-23T06:43:35.891Z,89.15
2018-04-23T06:44:44.726Z,89.05
2018-04-23T06:45:53.559Z,88.67
2018-04-23T06:47:02.393Z,89.15
2018-04-23T06:48:43.287Z,89.34
2018-04-23T06:49:52.122Z,88.95
2018-04-23T06:51:00.957Z,88.86
2018-04-23T06:52:10.070Z,88.76
2018-04-23T06:53:19.232Z,89.34
2018-04-23T06:54:28.067Z,88.76
2018-04-23T06:55:37.181Z,89.48
2018-04-23T06:56:46.289Z,89.29
2018-04-23T06:57:55.398Z,89.76
2018-04-23T06:59:04.327Z,89.19
2018-04-23T07:00:13.120Z,87.85
2018-04-23T07:01:21.958Z,89.24
2018-04-23T07:02:30.795Z,89.09
2018-04-23T07:03:39.632Z,89.38
2018-04-23T07:04:48.900Z,89.34
2018-04-23T07:05:58.031Z,88.29
2018-04-23T07:07:06.867Z,89.48
2018-04-23T07:08:15.983Z,89.38
2018-04-23T07:09:24.820Z,89.38
2018-04-23T07:10:33.756Z,89.48
2018-04-23T07:11:42.592Z,89.58
2018-04-23T07:12:51.427Z,90.15
2018-04-23T07:14:00.267Z,89.76
2018-04-23T07:15:09.103Z,87.95
2018-04-23T07:16:17.940Z,89.19
2018-04-23T07:17:27.049Z,88.43
2018-04-23T07:18:35.887Z,89.86
2018-04-23T07:19:44.724Z,89.19
2018-04-23T07:20:53.854Z,89.67
2018-04-23T07:22:02.838Z,89.48
2018-04-23T07:23:11.676Z,89.29
2018-04-23T07:24:20.513Z,90.05
2018-04-23T07:25:29.636Z,90.34
2018-04-23T07:26:38.465Z,89.81
2018-04-23T07:27:47.399Z,88.9
2018-04-23T07:28:56.235Z,90.09
2018-04-23T07:30:05.083Z,90.29
2018-04-23T07:31:13.908Z,90.86
2018-04-23T07:32:22.747Z,90.72
2018-04-23T07:33:31.793Z,90.91
2018-04-23T07:34:40.894Z,90.82
2018-04-23T07:35:49.731Z,90.82
2018-04-23T07:36:58.567Z,91.39
2018-04-23T07:38:07.679Z,91.39
2018-04-23T07:39:16.622Z,90.63
2018-04-23T07:40:25.455Z,91.49
2018-04-23T07:41:34.296Z,91.49
2018-04-23T07:42:43.133Z,91.2
2018-04-23T07:43:51.972Z,90.53
2018-04-23T07:45:01.010Z,90.53
2018-04-23T07:46:09.844Z,90.63
2018-04-23T07:47:18.953Z,91.97
2018-04-23T07:48:27.790Z,91.11
2018-04-23T07:49:36.628Z,91.58
2018-04-23T07:50:45.514Z,91.58
2018-04-23T07:51:54.349Z,91.39
2018-04-23T07:53:03.184Z,91.11
2018-04-23T07:54:12.101Z,91.68
2018-04-23T07:55:20.853Z,91.72
2018-04-23T07:56:30.319Z,91.25
2018-04-23T07:57:39.157Z,90.86
2018-04-23T07:58:47.994Z,91.44
2018-04-23T07:59:56.889Z,92.68
2018-04-23T08:01:05.666Z,91.82
2018-04-23T08:02:14.656Z,92.11
2018-04-23T08:03:23.492Z,92.58
2018-04-23T08:04:32.328Z,90.09
2018-04-23T08:05:41.447Z,92.78
2018-04-23T08:06:50.568Z,92.3
2018-04-23T08:07:59.492Z,92.11
2018-04-23T08:09:08.612Z,92.21
2018-04-23T08:10:17.449Z,92.21
2018-04-23T08:11:26.555Z,92.78
2018-04-23T08:12:35.388Z,92.21
2018-04-23T08:13:44.323Z,93.16
2018-04-23T08:14:53.161Z,93.83
2018-04-23T08:16:01.995Z,92.87
2018-04-23T08:17:10.833Z,94.5
2018-04-23T08:18:19.954Z,94.4
2018-04-23T08:19:29.169Z,94.79
2018-04-23T08:20:38.277Z,94.5
2018-04-23T08:21:47.113Z,94.31
2018-04-23T08:22:55.951Z,94.4
2018-04-23T08:24:04.791Z,93.93
2018-04-23T08:25:13.679Z,95.07
2018-04-23T08:26:22.518Z,95.07
2018-04-23T08:27:31.354Z,94.21
2018-04-23T08:28:40.191Z,95.17
2018-04-23T08:29:49.036Z,94.31
2018-04-23T08:30:57.918Z,94.12
2018-04-23T08:32:07.033Z,94.31
2018-04-23T08:33:15.866Z,95.07
2018-04-23T08:34:24.977Z,95.17
2018-04-23T08:35:33.813Z,95.41
2018-04-23T08:36:42.951Z,95.03
2018-04-23T08:37:52.065Z,95.12
2018-04-23T08:39:00.901Z,95.41
2018-04-23T08:40:09.740Z,95.6
2018-04-23T08:41:18.578Z,95.41
2018-04-23T08:42:27.517Z,94.74
2018-04-23T08:43:36.357Z,95.31
2018-04-23T08:44:45.472Z,96.18
2018-04-23T08:45:54.308Z,95.31
2018-04-23T08:47:03.143Z,96.08
2018-04-23T08:48:12.579Z,95.98
2018-04-23T08:49:22.029Z,94.84
2018-04-23T08:50:30.892Z,95.51
2018-04-23T08:51:39.702Z,96.08
2018-04-23T08:52:48.539Z,95.31
2018-04-23T08:53:57.802Z,94.45
2018-04-23T08:55:06.643Z,95.89
2018-04-23T08:56:16.025Z,96.08
2018-04-23T08:57:24.865Z,94.74
2018-04-23T08:58:33.699Z,96.56
2018-04-23T08:59:42.537Z,95.98
2018-04-23T09:00:51.374Z,95.98
2018-04-23T09:02:00.213Z,96.37
2018-04-23T09:03:09.331Z,96.08
2018-04-23T09:04:18.166Z,96.18
2018-04-23T09:05:27.254Z,96.03
2018-04-23T09:06:36.092Z,96.61
2018-04-23T09:07:44.937Z,96.51
2018-04-23T09:08:54.045Z,96.03
2018-04-23T09:10:02.884Z,96.42
2018-04-23T09:11:11.771Z,96.61
2018-04-23T09:12:20.608Z,95.94
2018-04-23T09:13:29.718Z,96.42
2018-04-23T09:14:38.554Z,96.8
2018-04-23T09:15:47.395Z,96.42
2018-04-23T09:16:56.330Z,97.38
2018-04-23T09:18:05.169Z,96.13
2018-04-23T09:19:14.004Z,96.42
2018-04-23T09:20:22.840Z,96.7
2018-04-23T09:21:31.950Z,96.7
2018-04-23T09:22:41.215Z,96.7
2018-04-23T09:23:50.051Z,97.18
2018-04-23T09:24:59.163Z,96.51
2018-04-23T09:26:08.001Z,97.28
2018-04-23T09:27:16.839Z,96.89
2018-04-23T09:28:26.027Z,98.05
2018-04-23T09:29:35.142Z,96.37
2018-04-23T09:30:44.231Z,97.28
2018-04-23T09:31:53.345Z,96.89
2018-04-23T09:33:02.181Z,97.04
2018-04-23T09:34:11.018Z,96.75
2018-04-23T09:35:19.864Z,97.04
2018-04-23T09:36:28.693Z,96.75
2018-04-23T09:37:37.812Z,96.66
2018-04-23T09:38:46.651Z,96.27
2018-04-23T09:39:55.860Z,96.22
2018-04-23T09:41:04.700Z,96.22
2018-04-23T09:42:13.536Z,96.13
2018-04-23T09:43:22.373Z,96.13
2018-04-23T09:44:31.302Z,96.03
2018-04-23T09:45:40.145Z,96.03
2018-04-23T09:46:48.982Z,95.84
2018-04-23T09:47:57.819Z,95.94
2018-04-23T09:49:06.656Z,95.84
2018-04-23T09:50:15.494Z,95.75
2018-04-23T09:51:24.608Z,96.32
2018-04-23T09:52:33.441Z,95.65
2018-04-23T09:53:42.279Z,95.84
2018-04-23T09:54:51.117Z,93.93
2018-04-23T09:55:59.953Z,93.49
2018-04-23T09:57:08.839Z,93.49
2018-04-23T09:58:17.676Z,94.74
2018-04-23T09:59:26.519Z,93.11
2018-04-23T10:00:35.353Z,94.64
2018-04-23T10:01:44.462Z,94.64
2018-04-23T10:02:53.722Z,95.89
2018-04-23T10:04:02.837Z,95.31
2018-04-23T10:05:11.675Z,93.21
2018-04-23T10:06:20.510Z,94.07
2018-04-23T10:07:29.346Z,93.88
2018-04-23T10:08:38.285Z,94.64
2018-04-23T10:09:47.399Z,92.82
2018-04-23T10:10:56.240Z,92.63
2018-04-23T10:12:05.099Z,93.21
2018-04-23T10:13:14.288Z,93.01
2018-04-23T10:14:23.428Z,96.08
2018-04-23T10:15:32.886Z,98.19
2018-04-23T10:16:42.003Z,98.48
2018-04-23T10:17:50.841Z,98.1
2018-04-23T10:18:59.679Z,97.47
2018-04-23T10:20:08.519Z,97.23
2018-04-23T10:21:17.357Z,97.28
2018-04-23T10:22:26.195Z,98.05
2018-04-23T10:23:35.306Z,97.38
2018-04-23T10:24:44.144Z,97.18
2018-04-23T10:25:53.265Z,97.38
2018-04-23T10:27:02.103Z,96.99
2018-04-23T10:28:10.942Z,98.43
2018-04-23T10:29:19.780Z,96.99
2018-04-23T10:30:28.620Z,98.52
2018-04-23T10:31:37.557Z,98.91
2018-04-23T10:32:46.671Z,98.24
2018-04-23T10:33:55.783Z,96.8
2018-04-23T10:35:04.896Z,95.84
2018-04-23T10:36:14.009Z,96.08
2018-04-23T10:37:22.849Z,97.23
2018-04-23T10:38:32.236Z,96.27
2018-04-23T10:39:41.072Z,95.6
2018-04-23T10:40:49.910Z,96.32
2018-04-23T10:41:58.746Z,95.07
2018-04-23T10:43:07.584Z,94.31
2018-04-23T10:44:16.418Z,94.69
2018-04-23T10:45:25.293Z,92.58
2018-04-23T10:46:34.414Z,92.68
2018-04-23T10:47:43.253Z,93.83
2018-04-23T10:48:52.090Z,93.63
2018-04-23T10:50:00.925Z,91.24
2018-04-23T10:51:09.761Z,91.09
2018-04-23T10:52:18.602Z,91.38
2018-04-23T10:53:27.712Z,89.94
2018-04-23T10:54:36.563Z,88.7
2018-04-23T10:55:45.393Z,90.04
2018-04-23T10:56:54.505Z,88.22
2018-04-23T10:58:03.342Z,89.65
2018-04-23T10:59:12.182Z,90.52
2018-04-23T11:00:21.116Z,88.26
2018-04-23T11:01:29.952Z,88.55
2018-04-23T11:02:38.790Z,87.4
2018-04-23T11:03:47.910Z,86.3
2018-04-23T11:04:57.019Z,85.63
2018-04-23T11:06:05.855Z,84.58
2018-04-23T11:07:14.694Z,85.05
2018-04-23T11:08:23.805Z,87.45
2018-04-23T11:09:32.639Z,88.02
2018-04-23T11:10:41.473Z,88.31
2018-04-23T11:11:50.511Z,89.94
2018-04-23T11:12:59.347Z,90.52
2018-04-23T11:14:08.462Z,90.61
2018-04-23T11:15:17.301Z,91
2018-04-23T11:16:26.138Z,91.19
2018-04-23T11:17:35.077Z,90.95
2018-04-23T11:18:43.912Z,92.01
2018-04-23T11:19:52.750Z,93.59
2018-04-23T11:21:01.867Z,91.96
2018-04-23T11:22:10.701Z,90.04
2018-04-23T11:23:19.864Z,90.61
2018-04-23T11:24:28.700Z,89.65
2018-04-23T11:25:37.813Z,91.77
2018-04-23T11:26:46.649Z,88.7
2018-04-23T11:27:55.486Z,87.64
2018-04-23T11:29:04.606Z,88.17
2018-04-23T11:30:13.443Z,88.08
2018-04-23T11:31:22.280Z,88.98
2018-04-23T11:32:31.452Z,88.6
2018-04-23T11:33:40.233Z,87.26
2018-04-23T11:34:49.545Z,87.84
2018-04-23T11:35:58.668Z,88.22
2018-04-23T11:37:07.496Z,87.55
2018-04-23T11:38:16.334Z,86.78
2018-04-23T11:39:25.212Z,86.15
2018-04-23T11:40:34.791Z,87.4
2018-04-23T11:41:43.903Z,85.67
2018-04-23T11:42:52.748Z,83.56
2018-04-23T11:44:01.584Z,82.31
2018-04-23T11:45:10.425Z,82.79
2018-04-23T11:46:19.309Z,85.48
2018-04-23T11:47:28.424Z,82.98
2018-04-23T11:48:37.303Z,81.35
2018-04-23T11:49:46.148Z,81.45
2018-04-23T11:50:55.267Z,82.31
2018-04-23T11:52:04.152Z,78.67
2018-04-23T11:53:13.324Z,77.71
2018-04-23T11:54:22.164Z,77.94
2018-04-23T11:55:31.007Z,78.03
2018-04-23T11:56:40.122Z,78.61
2018-04-23T11:57:49.286Z,78.42
2018-04-23T11:58:58.132Z,77.08
2018-04-23T12:00:07.016Z,76.06
2018-04-23T12:01:15.873Z,76.06
2018-04-23T12:02:24.836Z,74.62
2018-04-23T12:03:33.712Z,75.38
2018-04-23T12:04:42.556Z,73.18
2018-04-23T12:05:51.945Z,73.08
2018-04-23T12:07:01.056Z,73.27
2018-04-23T12:08:09.946Z,74.04
2018-04-23T12:09:18.994Z,74.43
2018-04-23T12:10:28.151Z,74.46
2018-04-23T12:11:37.270Z,73.56
2018-04-23T12:12:46.114Z,71.93
2018-04-23T12:13:55.234Z,72.31
2018-04-23T12:15:04.452Z,72.37
2018-04-23T12:16:13.794Z,72.56
2018-04-23T12:17:22.862Z,72.95
2018-04-23T12:18:32.040Z,69.72
2018-04-23T12:19:40.876Z,70.78
2018-04-23T12:20:50.021Z,69.59
2018-04-23T12:21:58.865Z,69.11
2018-04-23T12:23:07.962Z,69.97
2018-04-23T12:24:16.988Z,70.84
2018-04-23T12:25:25.875Z,69.91
2018-04-23T12:26:34.814Z,69.34
2018-04-23T12:27:43.750Z,71.16
2018-04-23T12:28:52.598Z,69.37
2018-04-23T12:30:01.460Z,68.98
2018-04-23T12:31:10.303Z,69.56
2018-04-23T12:32:19.201Z,70.78
2018-04-23T12:33:28.043Z,70.23
2018-04-23T12:34:37.157Z,69.27
2018-04-23T12:35:46.039Z,69.18
2018-04-23T12:36:55.134Z,68.98
2018-04-23T12:38:03.976Z,69.66
2018-04-23T12:39:12.819Z,69.37
2018-04-23T12:40:21.666Z,68.41
2018-04-23T12:41:30.509Z,67.93
2018-04-23T12:42:39.452Z,68.51
2018-04-23T12:43:48.295Z,67.96
2018-04-23T12:44:57.138Z,67
2018-04-23T12:46:06.071Z,65.78
2018-04-23T12:47:14.827Z,67.51
2018-04-23T12:48:23.949Z,67.22
2018-04-23T12:49:32.792Z,65.4
2018-04-23T12:50:41.636Z,65.43
2018-04-23T12:51:50.484Z,65.53
2018-04-23T12:52:59.328Z,65.05
2018-04-23T12:54:08.173Z,65.43
2018-04-23T12:55:17.021Z,64.95
2018-04-23T12:56:25.867Z,65.63
2018-04-23T12:57:34.719Z,66.1
2018-04-23T12:58:44.115Z,64.86
2018-04-23T12:59:53.236Z,65.05
2018-04-23T13:01:02.081Z,65.24
2018-04-23T13:02:10.939Z,66.2
2018-04-23T13:03:19.931Z,65.14
2018-04-23T13:04:28.812Z,66.2
2018-04-23T13:05:37.620Z,66.88
2018-04-23T13:06:46.464Z,63.79
2018-04-23T13:07:55.315Z,64.25
2018-04-23T13:09:04.253Z,64.43
2018-04-23T13:10:13.096Z,64.53
2018-04-23T13:11:21.935Z,65.17
2018-04-23T13:12:30.778Z,65.27
2018-04-23T13:13:39.621Z,65.5
2018-04-23T13:14:48.464Z,65.78
2018-04-23T13:15:57.307Z,65.97
2018-04-23T13:17:06.148Z,66.17
2018-04-23T13:18:14.990Z,66.07
2018-04-23T13:19:24.117Z,66.17
2018-04-23T13:20:33.058Z,65.5
2018-04-23T13:21:41.899Z,65.11
2018-04-23T13:22:50.740Z,65.17
2018-04-23T13:23:59.903Z,66.04
2018-04-23T13:25:08.701Z,67.77
2018-04-23T13:26:17.919Z,69.66
2018-04-23T13:27:26.760Z,71.33
2018-04-23T13:28:35.883Z,72.96
2018-04-23T13:29:44.996Z,73.06
2018-04-23T13:30:54.211Z,72
2018-04-23T13:32:03.102Z,71.71
2018-04-23T13:33:12.218Z,72.09
2018-04-23T13:34:21.612Z,70.4
2018-04-23T13:35:30.749Z,72.09
2018-04-23T13:36:39.879Z,70.21
2018-04-23T13:37:49.580Z,69.4
2018-04-23T13:38:59.248Z,69.98
2018-04-23T13:40:08.092Z,68.35
2018-04-23T13:41:16.935Z,68.92
2018-04-23T13:42:25.806Z,67.68
2018-04-23T13:43:35.268Z,67.13
2018-04-23T13:44:44.395Z,68.67
2018-04-23T13:45:53.528Z,68.76
2018-04-23T13:47:02.649Z,67.35
2018-04-23T13:48:11.493Z,65.81
2018-04-23T13:49:20.352Z,66.1
2018-04-23T13:50:29.199Z,63.99
2018-04-23T13:51:38.055Z,63.7
2018-04-23T13:52:47.184Z,64.56
2018-04-23T13:53:56.027Z,64.63
2018-04-23T13:55:05.071Z,65.59
2018-04-23T13:56:13.939Z,65.59
2018-04-23T13:57:22.753Z,66.04
2018-04-23T13:58:31.598Z,67
2018-04-23T13:59:40.441Z,67
2018-04-23T14:00:49.334Z,67.77
2018-04-23T14:01:58.176Z,67.77
2018-04-23T14:03:07.019Z,68.51
2018-04-23T14:04:15.866Z,68.35
2018-04-23T14:05:24.984Z,68.63
2018-04-23T14:06:34.079Z,69.21
2018-04-23T14:07:42.921Z,68.35
2018-04-23T14:08:51.773Z,68.76
2018-04-23T14:10:00.925Z,68.29
2018-04-23T14:11:09.787Z,68.44
2018-04-23T14:12:18.631Z,69.21
2018-04-23T14:13:27.752Z,69.89
2018-04-23T14:14:36.596Z,69.37
2018-04-23T14:15:45.711Z,70.43
2018-04-23T14:16:54.834Z,70.62
2018-04-23T14:18:03.799Z,71.39
2018-04-23T14:19:12.710Z,70.72
2018-04-23T14:20:21.832Z,69.66
2018-04-23T14:21:30.674Z,68.44
2018-04-23T14:22:40.146Z,68.76
2018-04-23T14:23:49.185Z,68.48
2018-04-23T14:24:58.440Z,67.42
2018-04-23T14:26:07.360Z,67.32
2018-04-23T14:27:16.482Z,67.61
2018-04-23T14:28:25.327Z,67.13
2018-04-23T14:29:34.272Z,67.68
2018-04-23T14:30:43.402Z,67.38
2018-04-23T14:31:52.743Z,66.52
2018-04-23T14:33:01.668Z,65.66
2018-04-23T14:34:10.502Z,64.5
2018-04-23T14:35:19.347Z,65.17
2018-04-23T14:36:28.193Z,66.61
2018-04-23T14:37:37.034Z,67.77
2018-04-23T14:38:45.893Z,68.83
2018-04-23T14:39:54.790Z,68.83
2018-04-23T14:41:03.782Z,69.12
2018-04-23T14:42:12.623Z,68.73
2018-04-23T14:43:21.525Z,68.92
2018-04-23T14:44:30.368Z,68.92
2018-04-23T14:45:39.213Z,69.6
2018-04-23T14:46:48.053Z,68.63
2018-04-23T14:47:57.169Z,68.73
2018-04-23T14:49:06.012Z,66.81
2018-04-23T14:50:15.125Z,67
2018-04-23T14:51:23.967Z,66.17